sensor_id;sensor_type;location;lat;lon;timestamp;pressure;altitude;pressure_sealevel;temperature;humidity
596;BME280;19946;49.306;11.350;2023-01-19T00:15:03;95185.69;;;-4.35;100.00
596;BME280;19946;49.306;11.350;2023-01-19T00:18:12;95117.31;;;-4.68;100.00
596;BME280;19946;49.306;11.350;2023-01-19T00:21:12;95190.56;;;-4.32;100.00
596;BME280;19946;49.306;11.350;2023-01-19T00:54:14;95202.41;;;-5.07;100.00
596;BME280;19946;49.306;11.350;2023-01-19T00:57:14;95200.88;;;-5.10;100.00
596;BME280;19946;49.306;11.350;2023-01-19T01:00:20;95234.75;;;-4.97;100.00
596;BME280;19946;49.306;11.350;2023-01-19T06:25:07;95155.50;;;-6.95;100.00
596;BME280;19946;49.306;11.350;2023-01-19T06:28:12;95255.53;;;-6.34;100.00
596;BME280;19946;49.306;11.350;2023-01-19T06:31:33;95386.00;;;-5.53;100.00
596;BME280;19946;49.306;11.350;2023-01-19T06:34:36;95084.69;;;-7.30;100.00
596;BME280;19946;49.306;11.350;2023-01-19T06:37:43;95175.66;;;-6.74;100.00
596;BME280;19946;49.306;11.350;2023-01-19T06:40:50;95071.78;;;-7.44;100.00
596;BME280;19946;49.306;11.350;2023-01-19T06:44:04;95086.25;;;-7.27;100.00
596;BME280;19946;49.306;11.350;2023-01-19T06:47:08;95308.41;;;-5.88;100.00
596;BME280;19946;49.306;11.350;2023-01-19T06:50:10;95294.00;;;-5.86;100.00
596;BME280;19946;49.306;11.350;2023-01-19T06:53:15;95411.31;;;-5.12;100.00
596;BME280;19946;49.306;11.350;2023-01-19T07:00:06;95231.47;;;-6.63;100.00
596;BME280;19946;49.306;11.350;2023-01-19T07:03:10;95285.81;;;-6.35;100.00
596;BME280;19946;49.306;11.350;2023-01-19T07:06:21;95302.81;;;-6.40;100.00
596;BME280;19946;49.306;11.350;2023-01-19T07:09:22;95177.44;;;-7.22;100.00
596;BME280;19946;49.306;11.350;2023-01-19T07:12:26;95318.72;;;-6.16;100.00
596;BME280;19946;49.306;11.350;2023-01-19T07:15:55;95407.00;;;-5.53;100.00
596;BME280;19946;49.306;11.350;2023-01-19T07:19:17;95154.03;;;-7.01;100.00
596;BME280;19946;49.306;11.350;2023-01-19T10:36:36;95404.72;;;-1.58;100.00
596;BME280;19946;49.306;11.350;2023-01-19T11:45:26;95488.25;;;-1.38;100.00
596;BME280;19946;49.306;11.350;2023-01-19T11:48:36;95280.88;;;-2.95;100.00
596;BME280;19946;49.306;11.350;2023-01-19T11:58:24;95480.56;;;-1.36;100.00
596;BME280;19946;49.306;11.350;2023-01-19T12:01:31;95498.94;;;-1.31;100.00
596;BME280;19946;49.306;11.350;2023-01-19T12:04:37;95489.97;;;-1.07;100.00
596;BME280;19946;49.306;11.350;2023-01-19T12:07:40;95322.28;;;-1.83;100.00
596;BME280;19946;49.306;11.350;2023-01-19T12:10:45;95341.41;;;-1.61;100.00
596;BME280;19946;49.306;11.350;2023-01-19T12:13:46;95473.38;;;-0.53;100.00
596;BME280;19946;49.306;11.350;2023-01-19T12:43:13;95468.69;;;-1.20;100.00
596;BME280;19946;49.306;11.350;2023-01-19T12:46:26;95364.69;;;-1.69;100.00
596;BME280;19946;49.306;11.350;2023-01-19T12:49:32;95442.41;;;-1.19;100.00
596;BME280;19946;49.306;11.350;2023-01-19T12:52:38;95429.47;;;-1.30;100.00
596;BME280;19946;49.306;11.350;2023-01-19T12:55:40;95392.59;;;-1.37;100.00
596;BME280;19946;49.306;11.350;2023-01-19T12:58:50;95301.50;;;-2.05;100.00
596;BME280;19946;49.306;11.350;2023-01-19T13:15:27;95478.09;;;-0.91;100.00
596;BME280;19946;49.306;11.350;2023-01-19T13:18:31;95484.56;;;-1.01;100.00
596;BME280;19946;49.306;11.350;2023-01-19T13:21:42;95460.16;;;-1.03;100.00
596;BME280;19946;49.306;11.350;2023-01-19T13:28:07;95359.88;;;-1.73;100.00
596;BME280;19946;49.306;11.350;2023-01-19T13:31:17;95468.66;;;-0.89;100.00
596;BME280;19946;49.306;11.350;2023-01-19T13:34:22;95497.84;;;-0.96;100.00
596;BME280;19946;49.306;11.350;2023-01-19T13:37:35;95340.72;;;-1.95;100.00
596;BME280;19946;49.306;11.350;2023-01-19T13:40:38;95403.56;;;-1.21;100.00
596;BME280;19946;49.306;11.350;2023-01-19T13:43:39;95270.34;;;-2.07;100.00
596;BME280;19946;49.306;11.350;2023-01-19T13:46:41;95468.19;;;-0.65;100.00
596;BME280;19946;49.306;11.350;2023-01-19T13:52:58;95451.38;;;-0.68;100.00
596;BME280;19946;49.306;11.350;2023-01-19T14:05:53;95379.66;;;-1.33;100.00
596;BME280;19946;49.306;11.350;2023-01-19T14:12:16;95264.59;;;-2.10;100.00
596;BME280;19946;49.306;11.350;2023-01-19T14:15:17;95303.72;;;-1.99;100.00
596;BME280;19946;49.306;11.350;2023-01-19T14:31:43;95488.50;;;-0.95;100.00
596;BME280;19946;49.306;11.350;2023-01-19T14:34:49;95476.78;;;-0.98;100.00
596;BME280;19946;49.306;11.350;2023-01-19T14:37:50;95479.81;;;-0.91;100.00
596;BME280;19946;49.306;11.350;2023-01-19T14:40:51;95413.78;;;-1.23;100.00
596;BME280;19946;49.306;11.350;2023-01-19T14:50:28;95403.56;;;-1.68;100.00
596;BME280;19946;49.306;11.350;2023-01-19T14:56:52;95435.09;;;-1.25;100.00
596;BME280;19946;49.306;11.350;2023-01-19T14:59:53;95149.44;;;-3.16;100.00
596;BME280;19946;49.306;11.350;2023-01-19T15:06:14;95477.63;;;-1.13;100.00
596;BME280;19946;49.306;11.350;2023-01-19T15:09:15;95422.41;;;-1.57;100.00
596;BME280;19946;49.306;11.350;2023-01-19T15:12:17;95480.56;;;-1.21;100.00
596;BME280;19946;49.306;11.350;2023-01-19T15:15:20;95436.03;;;-1.42;100.00
596;BME280;19946;49.306;11.350;2023-01-19T15:18:25;95330.56;;;-2.10;100.00
596;BME280;19946;49.306;11.350;2023-01-19T15:21:26;95501.84;;;-1.07;100.00
596;BME280;19946;49.306;11.350;2023-01-19T15:24:26;95494.91;;;-1.04;100.00
596;BME280;19946;49.306;11.350;2023-01-19T15:27:27;95450.44;;;-1.42;100.00
596;BME280;19946;49.306;11.350;2023-01-19T15:30:28;95418.97;;;-1.87;100.00
596;BME280;19946;49.306;11.350;2023-01-19T15:33:38;95408.56;;;-1.83;100.00
596;BME280;19946;49.306;11.350;2023-01-19T15:36:39;95501.13;;;-1.41;100.00
596;BME280;19946;49.306;11.350;2023-01-19T15:39:41;95406.69;;;-1.95;100.00
596;BME280;19946;49.306;11.350;2023-01-19T15:42:43;95498.91;;;-1.47;100.00
596;BME280;19946;49.306;11.350;2023-01-19T15:46:07;95510.13;;;-1.51;100.00
596;BME280;19946;49.306;11.350;2023-01-19T15:59:47;95502.50;;;-1.67;100.00
596;BME280;19946;49.306;11.350;2023-01-19T16:02:51;95505.09;;;-1.68;100.00
596;BME280;19946;49.306;11.350;2023-01-19T16:05:51;95509.69;;;-1.75;100.00
596;BME280;19946;49.306;11.350;2023-01-19T16:08:53;95510.53;;;-1.92;100.00
596;BME280;19946;49.306;11.350;2023-01-19T16:11:58;95448.53;;;-2.36;100.00
596;BME280;19946;49.306;11.350;2023-01-19T16:14:58;95491.84;;;-2.06;100.00
596;BME280;19946;49.306;11.350;2023-01-19T16:17:59;95513.75;;;-2.05;100.00
596;BME280;19946;49.306;11.350;2023-01-19T16:21:02;95505.28;;;-2.22;100.00
596;BME280;19946;49.306;11.350;2023-01-19T16:24:03;95484.28;;;-2.41;100.00
596;BME280;19946;49.306;11.350;2023-01-19T16:27:03;95454.28;;;-2.67;100.00
596;BME280;19946;49.306;11.350;2023-01-19T16:30:04;95496.13;;;-2.41;100.00
596;BME280;19946;49.306;11.350;2023-01-19T16:33:05;95509.00;;;-2.46;100.00
596;BME280;19946;49.306;11.350;2023-01-19T16:36:28;95510.06;;;-2.50;100.00
596;BME280;19946;49.306;11.350;2023-01-19T16:39:50;95485.97;;;-2.59;100.00
596;BME280;19946;49.306;11.350;2023-01-19T16:46:25;95428.69;;;-3.32;100.00
596;BME280;19946;49.306;11.350;2023-01-19T16:52:55;95353.81;;;-3.72;100.00
596;BME280;19946;49.306;11.350;2023-01-19T16:56:06;95480.41;;;-3.01;100.00
596;BME280;19946;49.306;11.350;2023-01-19T16:59:13;95303.03;;;-4.22;100.00
596;BME280;19946;49.306;11.350;2023-01-19T17:02:14;95181.44;;;-4.89;100.00
596;BME280;19946;49.306;11.350;2023-01-19T17:05:15;95484.09;;;-3.25;100.00
596;BME280;19946;49.306;11.350;2023-01-19T17:08:20;95382.69;;;-4.13;100.00
596;BME280;19946;49.306;11.350;2023-01-19T17:11:23;95534.38;;;-3.18;100.00
596;BME280;19946;49.306;11.350;2023-01-19T17:14:27;95516.59;;;-3.54;100.00
596;BME280;19946;49.306;11.350;2023-01-19T17:17:27;95461.75;;;-3.91;100.00
596;BME280;19946;49.306;11.350;2023-01-19T17:20:28;95551.25;;;-3.36;100.00
596;BME280;19946;49.306;11.350;2023-01-19T17:23:29;95545.66;;;-3.44;100.00
596;BME280;19946;49.306;11.350;2023-01-19T17:30:06;95548.47;;;-3.50;100.00
596;BME280;19946;49.306;11.350;2023-01-19T17:33:07;95518.97;;;-4.09;100.00
596;BME280;19946;49.306;11.350;2023-01-19T17:36:10;95388.78;;;-4.76;100.00
596;BME280;19946;49.306;11.350;2023-01-19T17:39:12;95567.38;;;-3.77;100.00
596;BME280;19946;49.306;11.350;2023-01-19T17:42:13;95358.91;;;-5.07;100.00
596;BME280;19946;49.306;11.350;2023-01-19T17:45:16;95464.75;;;-4.01;100.00
596;BME280;19946;49.306;11.350;2023-01-19T18:02:55;95521.28;;;-3.84;100.00
596;BME280;19946;49.306;11.350;2023-01-19T18:05:59;95528.59;;;-3.78;100.00
596;BME280;19946;49.306;11.350;2023-01-19T18:09:08;95307.06;;;-5.15;100.00
596;BME280;19946;49.306;11.350;2023-01-19T18:12:09;95564.84;;;-3.38;100.00
596;BME280;19946;49.306;11.350;2023-01-19T18:15:11;95387.00;;;-4.54;100.00
596;BME280;19946;49.306;11.350;2023-01-19T18:18:11;95271.34;;;-5.26;100.00
596;BME280;19946;49.306;11.350;2023-01-19T18:21:15;95242.09;;;-5.50;100.00
596;BME280;19946;49.306;11.350;2023-01-19T18:27:43;95480.53;;;-3.78;100.00
596;BME280;19946;49.306;11.350;2023-01-19T18:31:28;95556.28;;;-3.17;100.00
596;BME280;19946;49.306;11.350;2023-01-19T18:34:37;95209.53;;;-5.36;100.00
596;BME280;19946;49.306;11.350;2023-01-19T18:37:44;95271.47;;;-5.08;100.00
596;BME280;19946;49.306;11.350;2023-01-19T18:40:48;95481.38;;;-3.77;100.00
596;BME280;19946;49.306;11.350;2023-01-19T18:43:55;95349.72;;;-4.49;100.00
596;BME280;19946;49.306;11.350;2023-01-19T18:47:00;95573.25;;;-3.00;100.00
596;BME280;19946;49.306;11.350;2023-01-19T18:50:04;95368.16;;;-4.47;100.00
596;BME280;19946;49.306;11.350;2023-01-19T18:53:52;95295.25;;;-4.75;100.00
596;BME280;19946;49.306;11.350;2023-01-19T18:56:53;95424.50;;;-3.69;100.00
596;BME280;19946;49.306;11.350;2023-01-19T18:59:53;95565.63;;;-2.81;100.00
596;BME280;19946;49.306;11.350;2023-01-19T19:03:00;95355.94;;;-4.19;100.00
596;BME280;19946;49.306;11.350;2023-01-19T19:06:25;95567.41;;;-2.83;100.00
596;BME280;19946;49.306;11.350;2023-01-19T19:09:40;95366.66;;;-4.32;100.00
596;BME280;19946;49.306;11.350;2023-01-19T22:26:45;95633.72;;;-2.57;100.00
596;BME280;19946;49.306;11.350;2023-01-19T22:29:46;95626.13;;;-2.57;100.00
596;BME280;19946;49.306;11.350;2023-01-19T22:32:46;95638.84;;;-2.39;100.00
596;BME280;19946;49.306;11.350;2023-01-19T22:35:46;95585.28;;;-2.86;100.00
596;BME280;19946;49.306;11.350;2023-01-19T22:41:51;95631.78;;;-2.33;100.00
596;BME280;19946;49.306;11.350;2023-01-19T22:44:51;95608.63;;;-2.44;100.00
596;BME280;19946;49.306;11.350;2023-01-19T22:47:51;95582.38;;;-2.60;100.00
596;BME280;19946;49.306;11.350;2023-01-19T22:50:55;95599.38;;;-2.45;100.00
596;BME280;19946;49.306;11.350;2023-01-19T22:53:55;95595.06;;;-2.43;100.00
596;BME280;19946;49.306;11.350;2023-01-19T22:56:57;95558.88;;;-2.64;100.00
596;BME280;19946;49.306;11.350;2023-01-19T22:59:58;95475.47;;;-3.21;100.00
596;BME280;19946;49.306;11.350;2023-01-19T23:02:58;95626.19;;;-2.22;100.00
596;BME280;19946;49.306;11.350;2023-01-19T23:06:06;95548.09;;;-2.86;100.00
596;BME280;19946;49.306;11.350;2023-01-19T23:09:11;95510.81;;;-3.01;100.00
596;BME280;19946;49.306;11.350;2023-01-19T23:12:12;95519.97;;;-2.99;100.00
596;BME280;19946;49.306;11.350;2023-01-19T23:15:12;95497.41;;;-3.03;100.00
596;BME280;19946;49.306;11.350;2023-01-19T23:18:12;95609.38;;;-2.42;100.00
596;BME280;19946;49.306;11.350;2023-01-19T23:21:18;95626.19;;;-2.22;100.00
596;BME280;19946;49.306;11.350;2023-01-19T23:24:18;95518.69;;;-3.07;100.00
596;BME280;19946;49.306;11.350;2023-01-19T23:27:19;95548.06;;;-2.67;100.00
596;BME280;19946;49.306;11.350;2023-01-19T23:30:19;95542.22;;;-2.86;100.00
596;BME280;19946;49.306;11.350;2023-01-19T23:33:20;95557.72;;;-2.92;100.00
596;BME280;19946;49.306;11.350;2023-01-19T23:36:22;95582.06;;;-2.71;100.00
596;BME280;19946;49.306;11.350;2023-01-19T23:39:22;95537.16;;;-2.86;100.00
596;BME280;19946;49.306;11.350;2023-01-19T23:42:22;95639.31;;;-2.14;100.00
596;BME280;19946;49.306;11.350;2023-01-19T23:45:23;95643.06;;;-2.21;100.00
596;BME280;19946;49.306;11.350;2023-01-19T23:48:23;95649.16;;;-2.25;100.00
596;BME280;19946;49.306;11.350;2023-01-19T23:57:57;95637.72;;;-2.34;100.00
